sensor_id;sensor_type;location;lat;lon;timestamp;P1;durP1;ratioP1;P2;durP2;ratioP2
7653;SDS011;3869;48.406;10.774;2022-10-17T00:00:30;0.53;;;0.53;;
7653;SDS011;3869;48.406;10.774;2022-10-17T00:02:58;1.30;;;1.20;;
7653;SDS011;3869;48.406;10.774;2022-10-17T00:05:27;0.60;;;0.60;;
7653;SDS011;3869;48.406;10.774;2022-10-17T00:07:55;0.57;;;0.57;;
7653;SDS011;3869;48.406;10.774;2022-10-17T00:10:23;0.60;;;0.60;;
7653;SDS011;3869;48.406;10.774;2022-10-17T00:12:51;1.60;;;0.80;;
7653;SDS011;3869;48.406;10.774;2022-10-17T00:15:20;0.70;;;0.70;;
7653;SDS011;3869;48.406;10.774;2022-10-17T00:17:49;0.70;;;0.70;;
7653;SDS011;3869;48.406;10.774;2022-10-17T00:20:17;0.50;;;0.50;;
7653;SDS011;3869;48.406;10.774;2022-10-17T00:22:46;0.60;;;0.60;;
7653;SDS011;3869;48.406;10.774;2022-10-17T00:25:14;1.20;;;0.70;;
7653;SDS011;3869;48.406;10.774;2022-10-17T00:27:42;1.23;;;1.00;;
7653;SDS011;3869;48.406;10.774;2022-10-17T00:30:12;0.93;;;0.93;;
7653;SDS011;3869;48.406;10.774;2022-10-17T00:32:41;1.27;;;0.70;;
7653;SDS011;3869;48.406;10.774;2022-10-17T00:35:09;1.03;;;1.03;;
7653;SDS011;3869;48.406;10.774;2022-10-17T00:37:37;0.60;;;0.60;;
7653;SDS011;3869;48.406;10.774;2022-10-17T00:40:08;0.50;;;0.50;;
7653;SDS011;3869;48.406;10.774;2022-10-17T00:42:36;0.70;;;0.70;;
7653;SDS011;3869;48.406;10.774;2022-10-17T00:47:53;0.60;;;0.60;;
7653;SDS011;3869;48.406;10.774;2022-10-17T00:50:25;1.17;;;1.10;;
7653;SDS011;3869;48.406;10.774;2022-10-17T00:52:54;0.90;;;0.90;;
7653;SDS011;3869;48.406;10.774;2022-10-17T00:55:27;0.80;;;0.80;;
7653;SDS011;3869;48.406;10.774;2022-10-17T00:57:58;0.67;;;0.67;;
7653;SDS011;3869;48.406;10.774;2022-10-17T01:00:28;1.53;;;0.83;;
7653;SDS011;3869;48.406;10.774;2022-10-17T01:02:56;1.70;;;0.60;;
7653;SDS011;3869;48.406;10.774;2022-10-17T01:05:24;1.17;;;0.73;;
7653;SDS011;3869;48.406;10.774;2022-10-17T01:07:52;0.60;;;0.60;;
7653;SDS011;3869;48.406;10.774;2022-10-17T01:10:21;0.60;;;0.60;;
7653;SDS011;3869;48.406;10.774;2022-10-17T01:12:58;0.60;;;0.60;;
7653;SDS011;3869;48.406;10.774;2022-10-17T01:15:39;1.20;;;1.10;;
7653;SDS011;3869;48.406;10.774;2022-10-17T01:18:18;0.90;;;0.57;;
7653;SDS011;3869;48.406;10.774;2022-10-17T01:20:59;0.60;;;0.60;;
7653;SDS011;3869;48.406;10.774;2022-10-17T01:24:07;0.60;;;0.60;;
7653;SDS011;3869;48.406;10.774;2022-10-17T01:27:06;0.60;;;0.60;;
7653;SDS011;3869;48.406;10.774;2022-10-17T01:29:58;0.90;;;0.63;;
7653;SDS011;3869;48.406;10.774;2022-10-17T01:32:43;0.60;;;0.60;;
7653;SDS011;3869;48.406;10.774;2022-10-17T01:35:15;0.50;;;0.50;;
7653;SDS011;3869;48.406;10.774;2022-10-17T01:37:49;0.80;;;0.80;;
7653;SDS011;3869;48.406;10.774;2022-10-17T01:40:26;0.70;;;0.70;;
7653;SDS011;3869;48.406;10.774;2022-10-17T01:43:00;0.60;;;0.60;;
7653;SDS011;3869;48.406;10.774;2022-10-17T01:45:33;0.53;;;0.53;;
7653;SDS011;3869;48.406;10.774;2022-10-17T01:48:10;0.70;;;0.70;;
7653;SDS011;3869;48.406;10.774;2022-10-17T01:50:43;0.60;;;0.60;;
7653;SDS011;3869;48.406;10.774;2022-10-17T01:53:16;4.83;;;0.70;;
7653;SDS011;3869;48.406;10.774;2022-10-17T01:55:48;1.87;;;0.70;;
7653;SDS011;3869;48.406;10.774;2022-10-17T01:58:19;1.13;;;0.63;;
7653;SDS011;3869;48.406;10.774;2022-10-17T02:00:51;0.60;;;0.60;;
7653;SDS011;3869;48.406;10.774;2022-10-17T02:03:23;0.40;;;0.40;;
7653;SDS011;3869;48.406;10.774;2022-10-17T02:05:53;0.60;;;0.60;;
7653;SDS011;3869;48.406;10.774;2022-10-17T02:08:25;0.77;;;0.77;;
7653;SDS011;3869;48.406;10.774;2022-10-17T02:10:54;0.83;;;0.83;;
7653;SDS011;3869;48.406;10.774;2022-10-17T02:13:30;0.50;;;0.50;;
7653;SDS011;3869;48.406;10.774;2022-10-17T02:16:11;0.70;;;0.70;;
7653;SDS011;3869;48.406;10.774;2022-10-17T02:18:56;0.53;;;0.53;;
7653;SDS011;3869;48.406;10.774;2022-10-17T02:21:32;0.60;;;0.60;;
7653;SDS011;3869;48.406;10.774;2022-10-17T02:24:06;0.50;;;0.50;;
7653;SDS011;3869;48.406;10.774;2022-10-17T02:26:51;1.00;;;1.00;;
7653;SDS011;3869;48.406;10.774;2022-10-17T02:29:24;0.60;;;0.60;;
7653;SDS011;3869;48.406;10.774;2022-10-17T02:31:57;0.60;;;0.60;;
7653;SDS011;3869;48.406;10.774;2022-10-17T02:34:30;0.53;;;0.53;;
7653;SDS011;3869;48.406;10.774;2022-10-17T02:37:02;0.93;;;0.73;;
7653;SDS011;3869;48.406;10.774;2022-10-17T02:39:32;0.60;;;0.60;;
7653;SDS011;3869;48.406;10.774;2022-10-17T02:42:02;0.50;;;0.50;;
7653;SDS011;3869;48.406;10.774;2022-10-17T02:44:33;0.60;;;0.60;;
7653;SDS011;3869;48.406;10.774;2022-10-17T02:47:06;0.60;;;0.60;;
7653;SDS011;3869;48.406;10.774;2022-10-17T02:49:40;0.77;;;0.77;;
7653;SDS011;3869;48.406;10.774;2022-10-17T02:52:14;1.77;;;0.60;;
7653;SDS011;3869;48.406;10.774;2022-10-17T02:54:47;0.63;;;0.63;;
7653;SDS011;3869;48.406;10.774;2022-10-17T02:57:21;0.50;;;0.50;;
7653;SDS011;3869;48.406;10.774;2022-10-17T02:59:54;0.50;;;0.50;;
7653;SDS011;3869;48.406;10.774;2022-10-17T03:02:24;0.60;;;0.60;;
7653;SDS011;3869;48.406;10.774;2022-10-17T03:04:54;0.60;;;0.60;;
7653;SDS011;3869;48.406;10.774;2022-10-17T03:07:22;0.50;;;0.50;;
7653;SDS011;3869;48.406;10.774;2022-10-17T03:09:50;0.50;;;0.50;;
7653;SDS011;3869;48.406;10.774;2022-10-17T03:12:18;0.60;;;0.60;;
7653;SDS011;3869;48.406;10.774;2022-10-17T03:14:46;0.60;;;0.60;;
7653;SDS011;3869;48.406;10.774;2022-10-17T03:17:14;0.60;;;0.60;;
7653;SDS011;3869;48.406;10.774;2022-10-17T03:19:42;0.60;;;0.60;;
7653;SDS011;3869;48.406;10.774;2022-10-17T03:22:11;0.70;;;0.70;;
7653;SDS011;3869;48.406;10.774;2022-10-17T03:24:39;1.23;;;0.70;;
7653;SDS011;3869;48.406;10.774;2022-10-17T03:27:07;1.33;;;0.70;;
7653;SDS011;3869;48.406;10.774;2022-10-17T03:29:35;0.50;;;0.50;;
7653;SDS011;3869;48.406;10.774;2022-10-17T03:32:03;0.80;;;0.80;;
7653;SDS011;3869;48.406;10.774;2022-10-17T03:34:31;0.70;;;0.70;;
7653;SDS011;3869;48.406;10.774;2022-10-17T03:36:59;0.50;;;0.50;;
7653;SDS011;3869;48.406;10.774;2022-10-17T03:39:29;0.60;;;0.60;;
7653;SDS011;3869;48.406;10.774;2022-10-17T03:41:57;0.50;;;0.50;;
7653;SDS011;3869;48.406;10.774;2022-10-17T03:44:25;0.50;;;0.50;;
7653;SDS011;3869;48.406;10.774;2022-10-17T03:46:53;0.50;;;0.50;;
7653;SDS011;3869;48.406;10.774;2022-10-17T03:49:21;0.50;;;0.50;;
7653;SDS011;3869;48.406;10.774;2022-10-17T03:51:49;0.53;;;0.53;;
7653;SDS011;3869;48.406;10.774;2022-10-17T03:54:16;1.03;;;0.77;;
7653;SDS011;3869;48.406;10.774;2022-10-17T03:56:46;0.50;;;0.50;;
7653;SDS011;3869;48.406;10.774;2022-10-17T03:59:14;1.00;;;1.00;;
7653;SDS011;3869;48.406;10.774;2022-10-17T04:01:42;0.40;;;0.40;;
7653;SDS011;3869;48.406;10.774;2022-10-17T04:04:10;0.50;;;0.50;;
7653;SDS011;3869;48.406;10.774;2022-10-17T04:06:38;0.50;;;0.50;;
7653;SDS011;3869;48.406;10.774;2022-10-17T04:09:06;0.60;;;0.60;;
7653;SDS011;3869;48.406;10.774;2022-10-17T04:11:35;0.60;;;0.60;;
7653;SDS011;3869;48.406;10.774;2022-10-17T04:14:04;1.70;;;0.60;;
7653;SDS011;3869;48.406;10.774;2022-10-17T04:16:32;0.60;;;0.60;;
7653;SDS011;3869;48.406;10.774;2022-10-17T04:19:00;0.57;;;0.57;;
7653;SDS011;3869;48.406;10.774;2022-10-17T04:21:28;0.57;;;0.57;;
7653;SDS011;3869;48.406;10.774;2022-10-17T04:23:58;0.70;;;0.70;;
7653;SDS011;3869;48.406;10.774;2022-10-17T04:26:26;0.80;;;0.80;;
7653;SDS011;3869;48.406;10.774;2022-10-17T04:28:54;0.60;;;0.60;;
7653;SDS011;3869;48.406;10.774;2022-10-17T04:31:24;0.90;;;0.90;;
7653;SDS011;3869;48.406;10.774;2022-10-17T04:33:52;1.23;;;0.80;;
7653;SDS011;3869;48.406;10.774;2022-10-17T04:36:20;0.50;;;0.50;;
7653;SDS011;3869;48.406;10.774;2022-10-17T04:38:48;0.60;;;0.60;;
7653;SDS011;3869;48.406;10.774;2022-10-17T04:41:16;1.03;;;0.93;;
7653;SDS011;3869;48.406;10.774;2022-10-17T04:43:45;0.50;;;0.50;;
7653;SDS011;3869;48.406;10.774;2022-10-17T04:46:16;0.70;;;0.70;;
7653;SDS011;3869;48.406;10.774;2022-10-17T04:48:45;0.60;;;0.60;;
7653;SDS011;3869;48.406;10.774;2022-10-17T04:51:14;0.70;;;0.70;;
7653;SDS011;3869;48.406;10.774;2022-10-17T04:53:48;0.50;;;0.50;;
7653;SDS011;3869;48.406;10.774;2022-10-17T04:56:17;0.73;;;0.73;;
7653;SDS011;3869;48.406;10.774;2022-10-17T04:58:46;0.50;;;0.50;;
7653;SDS011;3869;48.406;10.774;2022-10-17T05:01:15;0.60;;;0.50;;
7653;SDS011;3869;48.406;10.774;2022-10-17T05:03:46;0.40;;;0.40;;
7653;SDS011;3869;48.406;10.774;2022-10-17T05:06:15;0.50;;;0.50;;
7653;SDS011;3869;48.406;10.774;2022-10-17T05:08:46;0.60;;;0.60;;
7653;SDS011;3869;48.406;10.774;2022-10-17T05:11:18;0.63;;;0.60;;
7653;SDS011;3869;48.406;10.774;2022-10-17T05:13:50;0.60;;;0.60;;
7653;SDS011;3869;48.406;10.774;2022-10-17T05:16:19;0.47;;;0.47;;
7653;SDS011;3869;48.406;10.774;2022-10-17T05:18:49;0.60;;;0.60;;
7653;SDS011;3869;48.406;10.774;2022-10-17T05:21:18;0.90;;;0.90;;
7653;SDS011;3869;48.406;10.774;2022-10-17T05:23:47;0.70;;;0.70;;
7653;SDS011;3869;48.406;10.774;2022-10-17T05:26:15;0.80;;;0.80;;
7653;SDS011;3869;48.406;10.774;2022-10-17T05:28:43;0.70;;;0.70;;
7653;SDS011;3869;48.406;10.774;2022-10-17T05:31:11;0.90;;;0.90;;
7653;SDS011;3869;48.406;10.774;2022-10-17T05:33:39;0.60;;;0.60;;
7653;SDS011;3869;48.406;10.774;2022-10-17T05:36:08;3.50;;;2.70;;
7653;SDS011;3869;48.406;10.774;2022-10-17T05:38:37;0.77;;;0.77;;
7653;SDS011;3869;48.406;10.774;2022-10-17T05:41:05;0.63;;;0.63;;
7653;SDS011;3869;48.406;10.774;2022-10-17T05:43:33;1.93;;;0.70;;
7653;SDS011;3869;48.406;10.774;2022-10-17T05:46:01;0.70;;;0.60;;
7653;SDS011;3869;48.406;10.774;2022-10-17T05:48:30;0.70;;;0.70;;
7653;SDS011;3869;48.406;10.774;2022-10-17T05:50:59;0.80;;;0.80;;
7653;SDS011;3869;48.406;10.774;2022-10-17T05:53:30;1.10;;;0.90;;
7653;SDS011;3869;48.406;10.774;2022-10-17T05:56:00;0.60;;;0.60;;
7653;SDS011;3869;48.406;10.774;2022-10-17T05:58:29;0.80;;;0.80;;
7653;SDS011;3869;48.406;10.774;2022-10-17T06:01:15;0.60;;;0.60;;
7653;SDS011;3869;48.406;10.774;2022-10-17T06:03:44;0.50;;;0.50;;
7653;SDS011;3869;48.406;10.774;2022-10-17T06:06:12;0.60;;;0.60;;
7653;SDS011;3869;48.406;10.774;2022-10-17T06:08:43;0.70;;;0.70;;
7653;SDS011;3869;48.406;10.774;2022-10-17T06:11:11;0.70;;;0.70;;
7653;SDS011;3869;48.406;10.774;2022-10-17T06:13:40;0.83;;;0.83;;
7653;SDS011;3869;48.406;10.774;2022-10-17T06:16:08;0.63;;;0.63;;
7653;SDS011;3869;48.406;10.774;2022-10-17T06:18:36;1.47;;;0.90;;
7653;SDS011;3869;48.406;10.774;2022-10-17T06:21:05;0.50;;;0.50;;
7653;SDS011;3869;48.406;10.774;2022-10-17T06:23:34;0.50;;;0.50;;
7653;SDS011;3869;48.406;10.774;2022-10-17T06:26:04;0.70;;;0.70;;
7653;SDS011;3869;48.406;10.774;2022-10-17T06:28:32;0.53;;;0.53;;
7653;SDS011;3869;48.406;10.774;2022-10-17T06:31:03;0.40;;;0.40;;
7653;SDS011;3869;48.406;10.774;2022-10-17T06:33:32;0.70;;;0.70;;
7653;SDS011;3869;48.406;10.774;2022-10-17T06:36:00;1.27;;;1.17;;
7653;SDS011;3869;48.406;10.774;2022-10-17T06:38:29;0.43;;;0.43;;
7653;SDS011;3869;48.406;10.774;2022-10-17T06:41:01;0.70;;;0.70;;
7653;SDS011;3869;48.406;10.774;2022-10-17T06:43:33;0.90;;;0.90;;
7653;SDS011;3869;48.406;10.774;2022-10-17T06:46:01;0.50;;;0.50;;
7653;SDS011;3869;48.406;10.774;2022-10-17T06:48:30;0.60;;;0.60;;
7653;SDS011;3869;48.406;10.774;2022-10-17T06:50:58;0.60;;;0.60;;
7653;SDS011;3869;48.406;10.774;2022-10-17T06:53:27;0.60;;;0.60;;
7653;SDS011;3869;48.406;10.774;2022-10-17T06:55:55;0.80;;;0.80;;
7653;SDS011;3869;48.406;10.774;2022-10-17T06:58:29;0.77;;;0.77;;
7653;SDS011;3869;48.406;10.774;2022-10-17T07:00:58;0.67;;;0.67;;
7653;SDS011;3869;48.406;10.774;2022-10-17T07:03:27;0.87;;;0.83;;
7653;SDS011;3869;48.406;10.774;2022-10-17T07:05:56;1.27;;;1.17;;
7653;SDS011;3869;48.406;10.774;2022-10-17T07:08:24;1.30;;;1.20;;
7653;SDS011;3869;48.406;10.774;2022-10-17T07:10:53;0.80;;;0.80;;
7653;SDS011;3869;48.406;10.774;2022-10-17T07:13:21;1.10;;;1.10;;
7653;SDS011;3869;48.406;10.774;2022-10-17T07:15:51;3.23;;;1.40;;
7653;SDS011;3869;48.406;10.774;2022-10-17T07:18:23;2.20;;;1.23;;
7653;SDS011;3869;48.406;10.774;2022-10-17T07:20:51;1.53;;;1.40;;
7653;SDS011;3869;48.406;10.774;2022-10-17T07:23:20;0.83;;;0.80;;
7653;SDS011;3869;48.406;10.774;2022-10-17T07:25:48;1.43;;;1.27;;
7653;SDS011;3869;48.406;10.774;2022-10-17T07:28:16;0.93;;;0.93;;
7653;SDS011;3869;48.406;10.774;2022-10-17T07:30:45;1.37;;;1.27;;
7653;SDS011;3869;48.406;10.774;2022-10-17T07:33:21;1.40;;;1.40;;
7653;SDS011;3869;48.406;10.774;2022-10-17T07:35:49;2.00;;;1.80;;
7653;SDS011;3869;48.406;10.774;2022-10-17T07:38:17;1.63;;;1.17;;
7653;SDS011;3869;48.406;10.774;2022-10-17T07:40:52;0.87;;;0.87;;
7653;SDS011;3869;48.406;10.774;2022-10-17T07:43:20;7.60;;;0.70;;
7653;SDS011;3869;48.406;10.774;2022-10-17T07:45:49;0.80;;;0.80;;
7653;SDS011;3869;48.406;10.774;2022-10-17T07:48:17;1.20;;;1.20;;
7653;SDS011;3869;48.406;10.774;2022-10-17T07:50:47;2.93;;;1.27;;
7653;SDS011;3869;48.406;10.774;2022-10-17T07:53:15;2.00;;;1.30;;
7653;SDS011;3869;48.406;10.774;2022-10-17T07:55:44;1.23;;;1.20;;
7653;SDS011;3869;48.406;10.774;2022-10-17T07:58:13;8.33;;;2.67;;
7653;SDS011;3869;48.406;10.774;2022-10-17T08:00:41;1.00;;;1.00;;
7653;SDS011;3869;48.406;10.774;2022-10-17T08:03:13;0.90;;;0.90;;
7653;SDS011;3869;48.406;10.774;2022-10-17T08:05:41;0.90;;;0.90;;
7653;SDS011;3869;48.406;10.774;2022-10-17T08:08:11;1.20;;;1.20;;
7653;SDS011;3869;48.406;10.774;2022-10-17T08:10:39;1.07;;;1.07;;
7653;SDS011;3869;48.406;10.774;2022-10-17T08:13:07;1.10;;;1.10;;
7653;SDS011;3869;48.406;10.774;2022-10-17T08:15:35;1.33;;;1.20;;
7653;SDS011;3869;48.406;10.774;2022-10-17T08:18:04;0.97;;;0.97;;
7653;SDS011;3869;48.406;10.774;2022-10-17T08:20:33;4.93;;;1.30;;
7653;SDS011;3869;48.406;10.774;2022-10-17T08:23:01;0.93;;;0.90;;
7653;SDS011;3869;48.406;10.774;2022-10-17T08:25:30;1.87;;;0.90;;
7653;SDS011;3869;48.406;10.774;2022-10-17T08:27:58;1.30;;;1.20;;
7653;SDS011;3869;48.406;10.774;2022-10-17T08:30:26;0.83;;;0.80;;
7653;SDS011;3869;48.406;10.774;2022-10-17T08:32:55;2.30;;;1.17;;
7653;SDS011;3869;48.406;10.774;2022-10-17T08:35:23;0.90;;;0.90;;
7653;SDS011;3869;48.406;10.774;2022-10-17T08:37:51;0.90;;;0.90;;
7653;SDS011;3869;48.406;10.774;2022-10-17T08:40:20;1.27;;;1.13;;
7653;SDS011;3869;48.406;10.774;2022-10-17T08:43:02;2.30;;;1.27;;
7653;SDS011;3869;48.406;10.774;2022-10-17T08:45:45;1.00;;;1.00;;
7653;SDS011;3869;48.406;10.774;2022-10-17T08:48:18;1.27;;;1.00;;
7653;SDS011;3869;48.406;10.774;2022-10-17T08:50:50;1.00;;;1.00;;
7653;SDS011;3869;48.406;10.774;2022-10-17T08:53:21;0.97;;;0.97;;
7653;SDS011;3869;48.406;10.774;2022-10-17T08:55:54;0.93;;;0.93;;
7653;SDS011;3869;48.406;10.774;2022-10-17T08:58:24;1.33;;;1.23;;
7653;SDS011;3869;48.406;10.774;2022-10-17T09:01:01;1.20;;;1.20;;
7653;SDS011;3869;48.406;10.774;2022-10-17T09:03:44;1.17;;;1.10;;
7653;SDS011;3869;48.406;10.774;2022-10-17T09:06:23;1.53;;;1.30;;
7653;SDS011;3869;48.406;10.774;2022-10-17T09:09:08;2.10;;;1.13;;
7653;SDS011;3869;48.406;10.774;2022-10-17T09:11:48;1.10;;;0.93;;
7653;SDS011;3869;48.406;10.774;2022-10-17T09:14:40;1.17;;;1.17;;
7653;SDS011;3869;48.406;10.774;2022-10-17T09:17:23;1.27;;;1.27;;
7653;SDS011;3869;48.406;10.774;2022-10-17T09:20:00;1.83;;;1.40;;
7653;SDS011;3869;48.406;10.774;2022-10-17T09:22:33;1.10;;;1.00;;
7653;SDS011;3869;48.406;10.774;2022-10-17T09:25:09;1.60;;;1.50;;
7653;SDS011;3869;48.406;10.774;2022-10-17T09:27:40;0.93;;;0.80;;
7653;SDS011;3869;48.406;10.774;2022-10-17T09:30:22;1.30;;;1.13;;
7653;SDS011;3869;48.406;10.774;2022-10-17T09:33:13;0.93;;;0.93;;
7653;SDS011;3869;48.406;10.774;2022-10-17T09:36:02;1.90;;;0.90;;
7653;SDS011;3869;48.406;10.774;2022-10-17T09:38:33;1.60;;;1.33;;
7653;SDS011;3869;48.406;10.774;2022-10-17T09:41:05;1.07;;;1.07;;
7653;SDS011;3869;48.406;10.774;2022-10-17T09:44:07;1.20;;;1.20;;
7653;SDS011;3869;48.406;10.774;2022-10-17T09:46:45;1.50;;;1.20;;
7653;SDS011;3869;48.406;10.774;2022-10-17T09:49:24;1.60;;;1.20;;
7653;SDS011;3869;48.406;10.774;2022-10-17T09:51:57;0.90;;;0.90;;
7653;SDS011;3869;48.406;10.774;2022-10-17T09:54:28;1.20;;;1.00;;
7653;SDS011;3869;48.406;10.774;2022-10-17T09:57:08;1.00;;;1.00;;
7653;SDS011;3869;48.406;10.774;2022-10-17T09:59:37;22.77;;;1.20;;
7653;SDS011;3869;48.406;10.774;2022-10-17T10:02:11;0.80;;;0.80;;
7653;SDS011;3869;48.406;10.774;2022-10-17T10:04:53;0.93;;;0.93;;
7653;SDS011;3869;48.406;10.774;2022-10-17T10:07:32;0.80;;;0.80;;
7653;SDS011;3869;48.406;10.774;2022-10-17T10:10:03;8.93;;;1.60;;
7653;SDS011;3869;48.406;10.774;2022-10-17T10:12:34;1.27;;;1.27;;
7653;SDS011;3869;48.406;10.774;2022-10-17T10:15:26;1.10;;;1.10;;
7653;SDS011;3869;48.406;10.774;2022-10-17T10:18:00;1.00;;;1.00;;
7653;SDS011;3869;48.406;10.774;2022-10-17T10:20:32;0.97;;;0.97;;
7653;SDS011;3869;48.406;10.774;2022-10-17T10:23:05;0.93;;;0.90;;
7653;SDS011;3869;48.406;10.774;2022-10-17T10:25:39;0.90;;;0.90;;
7653;SDS011;3869;48.406;10.774;2022-10-17T10:28:18;1.10;;;1.07;;
7653;SDS011;3869;48.406;10.774;2022-10-17T10:30:48;0.80;;;0.80;;
7653;SDS011;3869;48.406;10.774;2022-10-17T10:33:20;1.30;;;1.20;;
7653;SDS011;3869;48.406;10.774;2022-10-17T10:35:53;8.70;;;1.10;;
7653;SDS011;3869;48.406;10.774;2022-10-17T10:38:23;1.00;;;1.00;;
7653;SDS011;3869;48.406;10.774;2022-10-17T10:40:53;1.33;;;1.23;;
7653;SDS011;3869;48.406;10.774;2022-10-17T10:43:24;3.47;;;1.10;;
7653;SDS011;3869;48.406;10.774;2022-10-17T10:45:58;1.30;;;1.20;;
7653;SDS011;3869;48.406;10.774;2022-10-17T10:48:29;1.20;;;1.07;;
7653;SDS011;3869;48.406;10.774;2022-10-17T10:51:01;0.80;;;0.80;;
7653;SDS011;3869;48.406;10.774;2022-10-17T10:53:40;8.60;;;1.00;;
7653;SDS011;3869;48.406;10.774;2022-10-17T10:56:13;1.20;;;1.13;;
7653;SDS011;3869;48.406;10.774;2022-10-17T10:58:48;1.40;;;1.40;;
7653;SDS011;3869;48.406;10.774;2022-10-17T11:01:23;1.07;;;1.07;;
7653;SDS011;3869;48.406;10.774;2022-10-17T11:03:59;2.30;;;1.57;;
7653;SDS011;3869;48.406;10.774;2022-10-17T11:06:35;1.50;;;1.40;;
7653;SDS011;3869;48.406;10.774;2022-10-17T11:09:09;1.33;;;1.23;;
7653;SDS011;3869;48.406;10.774;2022-10-17T11:11:44;1.00;;;1.00;;
7653;SDS011;3869;48.406;10.774;2022-10-17T11:14:17;3.90;;;1.23;;
7653;SDS011;3869;48.406;10.774;2022-10-17T11:16:51;2.10;;;1.20;;
7653;SDS011;3869;48.406;10.774;2022-10-17T11:19:30;1.07;;;1.07;;
7653;SDS011;3869;48.406;10.774;2022-10-17T11:22:04;1.50;;;1.40;;
7653;SDS011;3869;48.406;10.774;2022-10-17T11:24:41;2.43;;;1.43;;
7653;SDS011;3869;48.406;10.774;2022-10-17T11:27:22;1.27;;;1.27;;
7653;SDS011;3869;48.406;10.774;2022-10-17T11:29:51;1.40;;;1.30;;
7653;SDS011;3869;48.406;10.774;2022-10-17T11:32:25;0.83;;;0.83;;
7653;SDS011;3869;48.406;10.774;2022-10-17T11:35:03;1.00;;;1.00;;
7653;SDS011;3869;48.406;10.774;2022-10-17T11:37:35;0.93;;;0.90;;
7653;SDS011;3869;48.406;10.774;2022-10-17T11:40:14;1.47;;;1.37;;
7653;SDS011;3869;48.406;10.774;2022-10-17T11:42:50;1.20;;;1.10;;
7653;SDS011;3869;48.406;10.774;2022-10-17T11:45:24;1.40;;;1.30;;
7653;SDS011;3869;48.406;10.774;2022-10-17T11:47:57;1.27;;;1.27;;
7653;SDS011;3869;48.406;10.774;2022-10-17T11:50:29;1.90;;;1.43;;
7653;SDS011;3869;48.406;10.774;2022-10-17T11:53:21;1.00;;;0.87;;
7653;SDS011;3869;48.406;10.774;2022-10-17T11:55:51;1.20;;;1.10;;
7653;SDS011;3869;48.406;10.774;2022-10-17T11:58:23;1.10;;;1.00;;
7653;SDS011;3869;48.406;10.774;2022-10-17T12:01:00;0.80;;;0.80;;
7653;SDS011;3869;48.406;10.774;2022-10-17T12:03:38;1.30;;;1.20;;
7653;SDS011;3869;48.406;10.774;2022-10-17T12:06:16;1.20;;;1.20;;
7653;SDS011;3869;48.406;10.774;2022-10-17T12:08:56;6.17;;;1.27;;
7653;SDS011;3869;48.406;10.774;2022-10-17T12:11:33;1.10;;;0.93;;
7653;SDS011;3869;48.406;10.774;2022-10-17T12:17:19;1.10;;;1.10;;
7653;SDS011;3869;48.406;10.774;2022-10-17T12:19:52;1.40;;;1.17;;
7653;SDS011;3869;48.406;10.774;2022-10-17T12:22:22;2.17;;;1.40;;
7653;SDS011;3869;48.406;10.774;2022-10-17T12:24:52;1.13;;;1.13;;
7653;SDS011;3869;48.406;10.774;2022-10-17T12:27:23;2.00;;;1.40;;
7653;SDS011;3869;48.406;10.774;2022-10-17T12:30:00;1.33;;;1.10;;
7653;SDS011;3869;48.406;10.774;2022-10-17T12:32:29;1.77;;;1.33;;
7653;SDS011;3869;48.406;10.774;2022-10-17T12:35:18;1.60;;;1.50;;
7653;SDS011;3869;48.406;10.774;2022-10-17T12:38:04;0.90;;;0.90;;
7653;SDS011;3869;48.406;10.774;2022-10-17T12:40:55;1.03;;;1.03;;
7653;SDS011;3869;48.406;10.774;2022-10-17T12:43:32;1.50;;;1.40;;
7653;SDS011;3869;48.406;10.774;2022-10-17T12:46:42;1.10;;;1.10;;
7653;SDS011;3869;48.406;10.774;2022-10-17T12:49:35;0.90;;;0.90;;
7653;SDS011;3869;48.406;10.774;2022-10-17T12:52:15;1.80;;;1.67;;
7653;SDS011;3869;48.406;10.774;2022-10-17T12:54:48;1.63;;;1.23;;
7653;SDS011;3869;48.406;10.774;2022-10-17T12:57:39;1.30;;;1.20;;
7653;SDS011;3869;48.406;10.774;2022-10-17T13:00:12;1.67;;;1.27;;
7653;SDS011;3869;48.406;10.774;2022-10-17T13:02:47;0.90;;;0.90;;
7653;SDS011;3869;48.406;10.774;2022-10-17T13:05:20;0.90;;;0.90;;
7653;SDS011;3869;48.406;10.774;2022-10-17T13:07:53;1.30;;;1.20;;
7653;SDS011;3869;48.406;10.774;2022-10-17T13:10:25;1.30;;;1.20;;
7653;SDS011;3869;48.406;10.774;2022-10-17T13:12:58;1.13;;;0.97;;
7653;SDS011;3869;48.406;10.774;2022-10-17T13:15:35;1.20;;;1.10;;
7653;SDS011;3869;48.406;10.774;2022-10-17T13:18:04;1.23;;;1.23;;
7653;SDS011;3869;48.406;10.774;2022-10-17T13:20:32;1.20;;;1.10;;
7653;SDS011;3869;48.406;10.774;2022-10-17T13:23:00;6.93;;;1.57;;
7653;SDS011;3869;48.406;10.774;2022-10-17T13:25:30;1.40;;;1.27;;
7653;SDS011;3869;48.406;10.774;2022-10-17T13:28:05;1.00;;;1.00;;
7653;SDS011;3869;48.406;10.774;2022-10-17T13:30:38;1.00;;;1.00;;
7653;SDS011;3869;48.406;10.774;2022-10-17T13:33:18;1.23;;;0.90;;
7653;SDS011;3869;48.406;10.774;2022-10-17T13:36:01;1.87;;;0.97;;
7653;SDS011;3869;48.406;10.774;2022-10-17T13:38:31;0.80;;;0.80;;
7653;SDS011;3869;48.406;10.774;2022-10-17T13:41:09;0.90;;;0.90;;
7653;SDS011;3869;48.406;10.774;2022-10-17T13:43:58;1.00;;;1.00;;
7653;SDS011;3869;48.406;10.774;2022-10-17T13:46:28;1.20;;;1.20;;
7653;SDS011;3869;48.406;10.774;2022-10-17T13:49:08;1.20;;;1.20;;
7653;SDS011;3869;48.406;10.774;2022-10-17T13:51:44;0.90;;;0.90;;
7653;SDS011;3869;48.406;10.774;2022-10-17T13:54:18;0.80;;;0.80;;
7653;SDS011;3869;48.406;10.774;2022-10-17T13:56:59;1.00;;;0.97;;
7653;SDS011;3869;48.406;10.774;2022-10-17T13:59:29;1.20;;;1.20;;
7653;SDS011;3869;48.406;10.774;2022-10-17T14:02:00;1.07;;;1.00;;
7653;SDS011;3869;48.406;10.774;2022-10-17T14:04:28;0.93;;;0.93;;
7653;SDS011;3869;48.406;10.774;2022-10-17T14:07:20;0.80;;;0.80;;
7653;SDS011;3869;48.406;10.774;2022-10-17T14:09:54;1.67;;;0.97;;
7653;SDS011;3869;48.406;10.774;2022-10-17T14:12:24;0.97;;;0.90;;
7653;SDS011;3869;48.406;10.774;2022-10-17T14:14:52;1.10;;;1.00;;
7653;SDS011;3869;48.406;10.774;2022-10-17T14:17:35;0.70;;;0.70;;
7653;SDS011;3869;48.406;10.774;2022-10-17T14:20:04;1.37;;;1.37;;
7653;SDS011;3869;48.406;10.774;2022-10-17T14:22:54;0.90;;;0.90;;
7653;SDS011;3869;48.406;10.774;2022-10-17T14:25:43;3.17;;;1.13;;
7653;SDS011;3869;48.406;10.774;2022-10-17T14:28:13;1.33;;;1.17;;
7653;SDS011;3869;48.406;10.774;2022-10-17T14:30:44;3.43;;;1.30;;
7653;SDS011;3869;48.406;10.774;2022-10-17T14:33:23;4.33;;;1.17;;
7653;SDS011;3869;48.406;10.774;2022-10-17T14:35:56;0.83;;;0.83;;
7653;SDS011;3869;48.406;10.774;2022-10-17T14:38:25;0.90;;;0.90;;
7653;SDS011;3869;48.406;10.774;2022-10-17T14:40:55;1.37;;;1.30;;
7653;SDS011;3869;48.406;10.774;2022-10-17T14:43:50;18.07;;;1.10;;
7653;SDS011;3869;48.406;10.774;2022-10-17T14:46:19;2.17;;;1.00;;
7653;SDS011;3869;48.406;10.774;2022-10-17T14:48:50;1.50;;;1.13;;
7653;SDS011;3869;48.406;10.774;2022-10-17T14:51:20;3.70;;;1.23;;
7653;SDS011;3869;48.406;10.774;2022-10-17T14:53:59;1.07;;;1.07;;
7653;SDS011;3869;48.406;10.774;2022-10-17T14:56:35;1.53;;;1.43;;
7653;SDS011;3869;48.406;10.774;2022-10-17T14:59:08;1.53;;;1.40;;
7653;SDS011;3869;48.406;10.774;2022-10-17T15:01:43;1.03;;;0.93;;
7653;SDS011;3869;48.406;10.774;2022-10-17T15:04:11;1.50;;;1.10;;
7653;SDS011;3869;48.406;10.774;2022-10-17T15:06:39;1.10;;;0.97;;
7653;SDS011;3869;48.406;10.774;2022-10-17T15:09:08;1.10;;;1.10;;
7653;SDS011;3869;48.406;10.774;2022-10-17T15:11:37;1.37;;;0.87;;
7653;SDS011;3869;48.406;10.774;2022-10-17T15:14:05;1.10;;;1.10;;
7653;SDS011;3869;48.406;10.774;2022-10-17T15:16:34;1.13;;;1.13;;
7653;SDS011;3869;48.406;10.774;2022-10-17T15:19:04;0.93;;;0.93;;
7653;SDS011;3869;48.406;10.774;2022-10-17T15:21:32;1.40;;;0.77;;
7653;SDS011;3869;48.406;10.774;2022-10-17T15:24:11;1.00;;;1.00;;
7653;SDS011;3869;48.406;10.774;2022-10-17T15:26:40;1.23;;;1.10;;
7653;SDS011;3869;48.406;10.774;2022-10-17T15:29:08;1.90;;;1.67;;
7653;SDS011;3869;48.406;10.774;2022-10-17T15:31:42;4.97;;;1.60;;
7653;SDS011;3869;48.406;10.774;2022-10-17T15:34:10;10.40;;;3.33;;
7653;SDS011;3869;48.406;10.774;2022-10-17T15:36:39;12.47;;;4.50;;
7653;SDS011;3869;48.406;10.774;2022-10-17T15:39:08;5.63;;;2.90;;